Time;durP1;ratioP1;P1;durP2;ratioP2;P2;SDS_P1;SDS_P2;PMS_P1;PMS_P2;Temp;Humidity;BMP_temperature;BMP_pressure;BME280_temperature;BME280_humidity;BME280_pressure;Samples;Min_cycle;Max_cycle;Signal;HPM_P1;HPM_P2
2023/10/30 00:00:39;;;;;;;6.00;1.67;;;16.40;60.10;;;;;;5093672;28;20647;-59
2023/10/30 00:03:09;;;;;;;6.72;1.77;;;16.30;60.00;;;;;;5094253;28;20624;-62
2023/10/30 00:05:36;;;;;;;7.15;1.77;;;16.30;60.00;;;;;;5093999;28;20632;-61
2023/10/30 00:08:03;;;;;;;3.67;1.67;;;16.30;60.00;;;;;;5093940;28;20271;-61
2023/10/30 00:10:30;;;;;;;3.28;1.42;;;16.30;60.10;;;;;;5093913;28;20724;-62
2023/10/30 00:12:57;;;;;;;4.65;1.63;;;16.30;60.00;;;;;;5094143;28;20267;-59
2023/10/30 00:15:25;;;;;;;8.25;1.65;;;16.30;60.00;;;;;;5093645;28;20189;-59
2023/10/30 00:17:54;;;;;;;7.50;1.70;;;16.30;60.00;;;;;;5093964;28;20214;-61
2023/10/30 00:20:20;;;;;;;7.57;1.90;;;16.30;60.10;;;;;;5093901;28;20309;-62
2023/10/30 00:22:47;;;;;;;7.85;1.88;;;16.30;60.10;;;;;;5093245;28;20718;-61
2023/10/30 00:25:15;;;;;;;6.07;1.90;;;16.30;60.10;;;;;;5093912;28;20208;-62
2023/10/30 00:27:42;;;;;;;3.08;1.50;;;16.30;60.00;;;;;;5093518;28;20218;-61
2023/10/30 00:30:10;;;;;;;6.82;1.80;;;16.30;60.10;;;;;;5093098;28;20188;-58
2023/10/30 00:32:37;;;;;;;6.07;1.70;;;16.30;60.10;;;;;;5093637;28;20220;-60
2023/10/30 00:35:06;;;;;;;5.63;1.67;;;16.30;60.10;;;;;;5093463;28;20193;-62
2023/10/30 00:37:33;;;;;;;7.03;1.83;;;16.30;60.20;;;;;;5092991;28;20325;-61
2023/10/30 00:40:00;;;;;;;5.85;1.95;;;16.30;60.20;;;;;;5093389;28;20590;-63
2023/10/30 00:42:28;;;;;;;5.93;1.92;;;16.30;60.10;;;;;;5093165;28;20196;-61
2023/10/30 00:44:56;;;;;;;5.63;1.77;;;16.30;60.10;;;;;;5093328;28;20190;-62
2023/10/30 00:47:23;;;;;;;6.05;1.80;;;16.30;60.10;;;;;;5093466;28;20265;-61
2023/10/30 00:49:50;;;;;;;6.72;2.20;;;16.30;60.10;;;;;;5093108;28;20559;-60
2023/10/30 00:52:18;;;;;;;7.07;1.70;;;16.30;60.20;;;;;;5092938;28;20196;-63
2023/10/30 00:54:45;;;;;;;6.32;1.95;;;16.30;60.20;;;;;;5093361;28;20193;-62
2023/10/30 00:57:12;;;;;;;6.47;1.80;;;16.30;60.20;;;;;;5093090;28;20272;-62
2023/10/30 00:59:40;;;;;;;5.68;2.05;;;16.30;60.20;;;;;;5092855;28;20214;-62
2023/10/30 01:02:07;;;;;;;7.45;2.03;;;16.40;60.30;;;;;;5093143;28;20200;-62
2023/10/30 01:04:34;;;;;;;6.63;1.75;;;16.30;60.20;;;;;;5093162;28;20320;-59
2023/10/30 01:07:01;;;;;;;7.70;2.53;;;16.30;60.20;;;;;;5092785;28;20539;-63
2023/10/30 01:09:29;;;;;;;7.63;2.38;;;16.30;60.20;;;;;;5093007;28;20225;-62
2023/10/30 01:11:56;;;;;;;6.50;1.80;;;16.30;60.20;;;;;;5093020;28;20193;-59
2023/10/30 01:14:24;;;;;;;8.63;2.08;;;16.40;60.40;;;;;;5092904;28;20300;-62
2023/10/30 01:16:51;;;;;;;8.63;2.10;;;16.30;60.30;;;;;;5092942;28;20272;-61
2023/10/30 01:19:17;;;;;;;5.30;1.75;;;16.30;60.30;;;;;;5092666;28;20235;-58
2023/10/30 01:21:45;;;;;;;7.38;1.85;;;16.30;60.30;;;;;;5092506;28;20190;-62
2023/10/30 01:24:12;;;;;;;9.43;1.83;;;16.30;60.30;;;;;;5092981;28;20296;-61
2023/10/30 01:26:40;;;;;;;7.68;2.10;;;16.30;60.30;;;;;;5092822;28;20277;-61
2023/10/30 01:29:07;;;;;;;6.65;2.08;;;16.30;60.30;;;;;;5092423;28;20224;-62
2023/10/30 01:31:34;;;;;;;6.32;1.60;;;16.30;60.30;;;;;;5092390;28;20584;-61
2023/10/30 01:34:01;;;;;;;8.48;1.98;;;16.30;60.40;;;;;;5092886;28;20310;-61
2023/10/30 01:36:29;;;;;;;9.30;2.00;;;16.30;60.40;;;;;;5092016;28;20194;-60
2023/10/30 01:38:57;;;;;;;7.30;1.75;;;16.30;60.30;;;;;;5092299;28;20287;-62
2023/10/30 01:41:24;;;;;;;7.80;1.95;;;16.30;60.30;;;;;;5092150;28;20614;-62
2023/10/30 01:43:53;;;;;;;7.15;1.65;;;16.30;60.40;;;;;;5092342;28;20300;-61
2023/10/30 01:46:20;;;;;;;6.43;1.60;;;16.30;60.40;;;;;;5092228;28;20619;-61
2023/10/30 01:48:48;;;;;;;7.90;1.90;;;16.30;60.40;;;;;;5092288;28;20786;-61
2023/10/30 01:51:19;;;;;;;5.82;1.85;;;16.30;60.40;;;;;;5092122;28;20281;-61
2023/10/30 01:53:48;;;;;;;8.55;2.28;;;16.30;60.50;;;;;;5092177;28;20214;-61
2023/10/30 01:56:16;;;;;;;5.45;1.88;;;16.30;60.40;;;;;;5092420;28;20186;-60
2023/10/30 01:58:43;;;;;;;6.50;1.90;;;16.30;60.50;;;;;;5091712;28;20296;-61
2023/10/30 02:01:12;;;;;;;6.13;1.73;;;16.30;60.50;;;;;;5092055;28;20745;-60
2023/10/30 02:03:39;;;;;;;6.90;2.20;;;16.30;60.50;;;;;;5092083;28;20210;-59
2023/10/30 02:06:06;;;;;;;8.20;2.33;;;16.30;60.50;;;;;;5091692;28;20715;-58
2023/10/30 02:08:33;;;;;;;7.22;2.22;;;16.30;60.50;;;;;;5092154;28;20249;-61
2023/10/30 02:11:00;;;;;;;7.80;2.03;;;16.30;60.50;;;;;;5092491;28;20277;-62
2023/10/30 02:13:27;;;;;;;4.70;1.50;;;16.30;60.50;;;;;;5091996;28;20232;-63
2023/10/30 02:15:54;;;;;;;8.18;1.85;;;16.30;60.60;;;;;;5091996;28;20652;-63
2023/10/30 02:18:22;;;;;;;7.60;1.77;;;16.30;60.50;;;;;;5092258;28;20301;-62
2023/10/30 02:20:49;;;;;;;7.78;2.03;;;16.30;60.50;;;;;;5091695;28;20240;-61
2023/10/30 02:23:16;;;;;;;4.75;1.77;;;16.30;60.60;;;;;;5091932;28;20301;-62
2023/10/30 02:25:45;;;;;;;7.28;1.98;;;16.30;60.60;;;;;;5092151;28;20186;-61
2023/10/30 02:28:12;;;;;;;4.78;1.58;;;16.20;60.50;;;;;;5091716;28;20230;-61
2023/10/30 02:30:39;;;;;;;8.10;1.90;;;16.20;60.50;;;;;;5091766;28;20561;-62
2023/10/30 02:33:05;;;;;;;8.77;1.88;;;16.30;60.60;;;;;;5091754;28;20774;-60
2023/10/30 02:35:32;;;;;;;9.65;2.35;;;16.20;60.50;;;;;;5091487;28;20814;-62
2023/10/30 02:37:59;;;;;;;4.80;1.70;;;16.30;60.60;;;;;;5091868;28;20230;-59
2023/10/30 02:40:26;;;;;;;6.50;1.65;;;16.20;60.50;;;;;;5091892;28;20232;-61
2023/10/30 02:42:54;;;;;;;6.10;2.00;;;16.20;60.50;;;;;;5091262;28;20220;-62
2023/10/30 02:45:21;;;;;;;4.50;1.60;;;16.20;60.50;;;;;;5091985;28;20205;-61
2023/10/30 02:47:48;;;;;;;6.43;1.55;;;16.30;61.40;;;;;;5091694;28;20226;-60
2023/10/30 02:50:15;;;;;;;5.78;1.52;;;16.20;60.50;;;;;;5091647;28;20190;-60
2023/10/30 02:52:42;;;;;;;5.30;1.85;;;16.30;60.60;;;;;;5091821;28;20200;-63
2023/10/30 02:55:10;;;;;;;9.40;2.33;;;16.20;60.60;;;;;;5091878;28;20186;-62
2023/10/30 02:57:37;;;;;;;7.32;2.15;;;16.30;60.70;;;;;;5091106;28;20547;-60
2023/10/30 03:00:07;;;;;;;4.03;1.50;;;16.20;60.60;;;;;;5091866;28;20639;-61
2023/10/30 03:02:34;;;;;;;4.68;2.00;;;16.30;60.70;;;;;;5091817;28;20187;-60
2023/10/30 03:05:01;;;;;;;4.93;1.80;;;16.20;60.60;;;;;;5093013;28;20218;-62
2023/10/30 03:07:28;;;;;;;3.95;1.75;;;16.20;60.60;;;;;;5095482;28;20277;-61
2023/10/30 03:09:55;;;;;;;6.75;1.90;;;16.30;60.70;;;;;;5095680;28;20256;-63
2023/10/30 03:12:22;;;;;;;6.93;1.80;;;16.30;60.70;;;;;;5094611;28;20186;-62
2023/10/30 03:14:49;;;;;;;4.82;1.98;;;16.20;60.60;;;;;;5095376;28;20249;-61
2023/10/30 03:17:17;;;;;;;8.38;2.00;;;16.20;60.60;;;;;;5095212;28;20190;-60
2023/10/30 03:19:44;;;;;;;4.85;2.05;;;16.30;60.70;;;;;;5095221;28;20321;-61
2023/10/30 03:22:11;;;;;;;6.28;1.67;;;16.20;60.60;;;;;;5095123;28;20188;-58
2023/10/30 03:24:38;;;;;;;5.90;1.90;;;16.20;60.60;;;;;;5095243;28;20210;-61
2023/10/30 03:27:05;;;;;;;5.85;1.80;;;16.30;60.70;;;;;;5094467;28;20727;-60
2023/10/30 03:29:36;;;;;;;7.30;1.75;;;16.20;60.60;;;;;;5094995;28;20312;-59
2023/10/30 03:32:03;;;;;;;7.55;1.85;;;16.20;60.60;;;;;;5094948;28;20194;-59
2023/10/30 03:34:31;;;;;;;8.23;1.60;;;16.30;60.70;;;;;;5094719;28;20305;-62
2023/10/30 03:36:58;;;;;;;6.97;2.00;;;16.20;60.60;;;;;;5094855;28;20190;-63
2023/10/30 03:39:25;;;;;;;7.90;2.05;;;16.20;60.70;;;;;;5094690;28;20349;-61
2023/10/30 03:41:52;;;;;;;5.35;1.90;;;16.20;60.70;;;;;;5094635;28;20194;-62
2023/10/30 03:44:19;;;;;;;9.88;2.10;;;16.20;60.70;;;;;;5094603;28;20710;-63
2023/10/30 03:46:46;;;;;;;5.85;1.40;;;16.20;60.70;;;;;;5094655;28;20618;-62
2023/10/30 03:49:13;;;;;;;6.53;1.85;;;16.20;60.70;;;;;;5094528;28;20218;-59
2023/10/30 03:51:41;;;;;;;7.43;2.08;;;16.20;61.60;;;;;;5094442;28;20287;-61
2023/10/30 03:54:09;;;;;;;5.88;1.90;;;16.20;60.80;;;;;;5094473;28;20309;-61
2023/10/30 03:56:36;;;;;;;6.57;1.58;;;16.20;60.80;;;;;;5094044;28;20193;-60
2023/10/30 03:59:03;;;;;;;6.15;1.70;;;16.20;60.80;;;;;;5094126;28;20647;-58
2023/10/30 04:01:30;;;;;;;7.35;1.75;;;16.20;60.80;;;;;;5093973;28;20220;-62
2023/10/30 04:03:57;;;;;;;6.40;1.58;;;16.20;60.80;;;;;;5094274;28;20304;-62
2023/10/30 04:06:24;;;;;;;5.93;1.75;;;16.20;60.80;;;;;;5093786;28;20667;-60
2023/10/30 04:08:52;;;;;;;7.53;1.52;;;16.20;60.80;;;;;;5094346;28;20287;-62
2023/10/30 04:11:19;;;;;;;4.93;1.55;;;16.20;60.80;;;;;;5093873;28;20277;-61
2023/10/30 04:13:46;;;;;;;6.28;1.70;;;16.20;60.80;;;;;;5093476;28;20594;-56
2023/10/30 04:16:16;;;;;;;6.50;1.80;;;16.20;60.80;;;;;;5092945;28;20290;-60
2023/10/30 04:18:43;;;;;;;7.75;1.90;;;16.20;60.80;;;;;;5093719;28;20296;-61
2023/10/30 04:21:10;;;;;;;6.32;1.75;;;16.20;61.10;;;;;;5093218;28;20214;-61
2023/10/30 04:23:38;;;;;;;8.13;2.08;;;16.20;60.90;;;;;;5093849;28;20217;-61
2023/10/30 04:26:06;;;;;;;8.32;2.10;;;16.20;60.90;;;;;;5093946;28;20190;-58
2023/10/30 04:28:33;;;;;;;4.97;1.88;;;16.20;60.90;;;;;;5093526;28;20236;-62
2023/10/30 04:31:00;;;;;;;5.40;1.80;;;16.20;60.90;;;;;;5093456;28;20273;-62
2023/10/30 04:33:27;;;;;;;5.65;2.13;;;16.20;60.90;;;;;;5093742;28;20332;-62
2023/10/30 04:35:54;;;;;;;5.70;1.92;;;16.20;60.90;;;;;;5093647;28;20300;-62
2023/10/30 04:38:24;;;;;;;4.93;1.80;;;16.20;60.90;;;;;;5093165;28;20703;-60
2023/10/30 04:40:51;;;;;;;6.60;1.90;;;16.20;61.00;;;;;;5093615;28;20313;-61
2023/10/30 04:43:19;;;;;;;8.35;1.65;;;16.20;61.00;;;;;;5093262;28;20578;-60
2023/10/30 04:45:46;;;;;;;8.48;1.60;;;16.20;61.00;;;;;;5093520;28;20193;-60
2023/10/30 04:48:12;;;;;;;10.63;2.10;;;16.20;61.00;;;;;;5093141;28;20648;-62
2023/10/30 04:50:39;;;;;;;6.72;1.90;;;16.20;61.00;;;;;;5092743;28;20182;-61
2023/10/30 04:53:06;;;;;;;9.52;1.95;;;16.20;61.00;;;;;;5093448;28;20190;-61
2023/10/30 04:55:34;;;;;;;5.43;1.52;;;16.20;61.00;;;;;;5093425;28;20365;-61
2023/10/30 04:58:01;;;;;;;7.45;2.53;;;16.20;61.00;;;;;;5092498;28;20240;-58
2023/10/30 05:00:29;;;;;;;5.07;1.77;;;16.20;61.00;;;;;;5092922;28;20309;-61
2023/10/30 05:02:56;;;;;;;7.30;1.90;;;16.20;61.10;;;;;;5093244;28;20197;-63
2023/10/30 05:05:23;;;;;;;8.00;1.65;;;16.20;61.10;;;;;;5092837;28;20316;-58
2023/10/30 05:07:50;;;;;;;5.57;1.88;;;16.20;61.10;;;;;;5093513;28;20202;-62
2023/10/30 05:10:17;;;;;;;5.25;1.73;;;16.20;61.10;;;;;;5092734;28;20703;-59
2023/10/30 05:12:44;;;;;;;6.13;2.30;;;16.20;61.10;;;;;;5092690;28;20282;-63
2023/10/30 05:15:11;;;;;;;3.58;1.63;;;16.20;61.10;;;;;;5092946;28;20216;-60
2023/10/30 05:17:39;;;;;;;7.30;1.90;;;16.20;61.10;;;;;;5092662;28;20192;-60
2023/10/30 05:20:08;;;;;;;6.93;1.55;;;16.20;61.10;;;;;;5092740;28;20523;-61
2023/10/30 05:22:35;;;;;;;3.95;1.92;;;16.20;61.10;;;;;;5092481;28;20276;-62
2023/10/30 05:25:03;;;;;;;8.23;2.05;;;16.20;61.10;;;;;;5092897;28;20214;-59
2023/10/30 05:27:30;;;;;;;5.25;1.52;;;16.20;61.10;;;;;;5092059;28;20197;-61
2023/10/30 05:29:57;;;;;;;8.38;1.63;;;16.20;61.10;;;;;;5092963;28;20462;-63
2023/10/30 05:32:24;;;;;;;7.18;1.80;;;16.20;61.20;;;;;;5092763;28;20273;-62
2023/10/30 05:34:53;;;;;;;6.40;1.80;;;16.20;61.20;;;;;;5092257;28;20305;-60
2023/10/30 05:37:20;;;;;;;7.30;2.00;;;16.20;61.30;;;;;;5092490;28;20191;-63
2023/10/30 05:39:49;;;;;;;4.75;1.80;;;16.20;61.30;;;;;;5092673;28;20233;-59
2023/10/30 05:42:16;;;;;;;6.00;1.75;;;16.20;61.20;;;;;;5092341;28;20293;-62
2023/10/30 05:44:43;;;;;;;4.40;1.70;;;16.20;61.30;;;;;;5092683;28;20304;-62
2023/10/30 05:47:11;;;;;;;9.18;2.10;;;16.20;61.30;;;;;;5092539;28;20303;-62
2023/10/30 05:49:39;;;;;;;5.63;1.70;;;16.20;61.30;;;;;;5091955;28;20224;-61
2023/10/30 05:52:08;;;;;;;4.03;1.45;;;16.20;61.40;;;;;;5092450;28;20190;-61
2023/10/30 05:54:35;;;;;;;6.47;1.70;;;16.20;61.40;;;;;;5092776;28;20216;-60
2023/10/30 05:57:02;;;;;;;5.28;1.50;;;16.20;61.30;;;;;;5091795;28;20679;-60
2023/10/30 05:59:28;;;;;;;9.63;1.90;;;16.20;61.40;;;;;;5092535;28;20216;-61
2023/10/30 06:01:55;;;;;;;11.10;1.92;;;16.20;61.40;;;;;;5091978;28;20216;-62
2023/10/30 06:04:22;;;;;;;5.68;2.28;;;16.20;61.40;;;;;;5091982;28;20216;-60
2023/10/30 06:06:49;;;;;;;7.15;1.65;;;16.20;61.40;;;;;;5092224;28;20186;-61
2023/10/30 06:09:17;;;;;;;4.53;1.83;;;16.20;61.40;;;;;;5092377;28;20224;-60
2023/10/30 06:11:47;;;;;;;8.73;1.83;;;16.20;61.40;;;;;;5091955;28;20268;-60
2023/10/30 06:14:15;;;;;;;6.05;2.03;;;16.20;61.40;;;;;;5092251;28;20217;-61
2023/10/30 06:16:43;;;;;;;5.90;1.70;;;16.20;61.40;;;;;;5092270;28;20189;-61
2023/10/30 06:19:10;;;;;;;6.50;1.75;;;16.20;62.20;;;;;;5092002;28;20213;-63
2023/10/30 06:21:38;;;;;;;6.75;1.77;;;16.20;61.50;;;;;;5091810;28;20760;-60
2023/10/30 06:24:06;;;;;;;4.10;1.90;;;16.20;61.50;;;;;;5092271;28;20217;-61
2023/10/30 06:26:35;;;;;;;6.53;1.92;;;16.20;61.60;;;;;;5091884;28;20182;-62
2023/10/30 06:29:02;;;;;;;7.53;1.92;;;16.20;61.50;;;;;;5092202;28;20309;-62
2023/10/30 06:31:29;;;;;;;4.15;1.58;;;16.20;61.60;;;;;;5091750;28;20702;-59
2023/10/30 06:33:55;;;;;;;6.35;1.65;;;16.10;61.50;;;;;;5091669;28;20282;-58
2023/10/30 06:36:22;;;;;;;8.25;2.15;;;16.20;61.70;;;;;;5092151;28;20247;-62
2023/10/30 06:38:49;;;;;;;4.38;1.48;;;16.20;61.70;;;;;;5091932;28;20323;-62
2023/10/30 06:41:16;;;;;;;5.60;1.65;;;16.20;61.70;;;;;;5095373;28;20316;-63
2023/10/30 06:43:44;;;;;;;6.75;2.10;;;16.20;61.70;;;;;;5095788;28;20297;-60
2023/10/30 06:46:11;;;;;;;6.55;1.75;;;16.20;61.60;;;;;;5095863;28;20191;-59
2023/10/30 06:48:38;;;;;;;7.03;2.22;;;16.20;61.70;;;;;;5095486;28;20221;-61
2023/10/30 06:51:05;;;;;;;10.65;2.00;;;16.20;61.70;;;;;;5095765;28;20187;-60
2023/10/30 06:53:32;;;;;;;6.25;2.45;;;16.20;61.80;;;;;;5095668;28;20197;-61
2023/10/30 06:55:59;;;;;;;6.97;1.77;;;16.10;61.70;;;;;;5095345;28;20558;-61
2023/10/30 06:58:26;;;;;;;6.40;1.70;;;16.20;61.80;;;;;;5095566;28;20280;-60
2023/10/30 07:01:02;;;;;;;5.15;1.83;;;16.20;61.70;;;;;;5095189;28;20210;-61
2023/10/30 07:03:29;;;;;;;6.68;2.28;;;16.20;61.80;;;;;;5095207;28;20192;-60
2023/10/30 07:05:56;;;;;;;10.95;2.17;;;16.10;61.70;;;;;;5095626;28;20269;-60
2023/10/30 07:08:23;;;;;;;5.45;1.80;;;16.10;61.70;;;;;;5095127;28;20182;-59
2023/10/30 07:10:50;;;;;;;6.45;1.90;;;16.10;61.80;;;;;;5094977;28;20286;-61
2023/10/30 07:13:17;;;;;;;6.45;1.80;;;16.20;61.90;;;;;;5095378;28;20265;-63
2023/10/30 07:15:44;;;;;;;5.90;1.70;;;16.10;61.80;;;;;;5095176;28;20684;-60
2023/10/30 07:18:12;;;;;;;5.13;1.73;;;16.20;61.90;;;;;;5094915;28;20192;-60
2023/10/30 07:20:39;;;;;;;7.78;2.08;;;16.20;61.90;;;;;;5094857;28;20297;-62
2023/10/30 07:23:06;;;;;;;6.03;1.80;;;16.10;61.80;;;;;;5094892;28;20548;-61
2023/10/30 07:25:33;;;;;;;6.97;1.75;;;16.10;61.80;;;;;;5094758;28;20210;-61
2023/10/30 07:28:00;;;;;;;9.10;1.98;;;16.20;61.90;;;;;;5095021;28;20747;-62
2023/10/30 07:30:27;;;;;;;7.43;1.95;;;16.20;61.90;;;;;;5094990;28;20592;-60
2023/10/30 07:32:54;;;;;;;4.20;1.63;;;16.20;61.90;;;;;;5094666;28;20229;-61
2023/10/30 07:35:22;;;;;;;9.57;2.47;;;16.10;61.90;;;;;;5094834;28;20725;-60
2023/10/30 07:37:49;;;;;;;9.32;2.17;;;16.20;61.90;;;;;;5094718;28;20233;-61
2023/10/30 07:40:16;;;;;;;6.15;2.45;;;16.10;61.80;;;;;;5094481;28;20217;-62
2023/10/30 07:42:43;;;;;;;6.57;1.88;;;16.10;61.80;;;;;;5094754;28;20218;-61
2023/10/30 07:45:12;;;;;;;11.27;1.90;;;16.10;61.80;;;;;;5094652;28;20256;-59
2023/10/30 07:47:39;;;;;;;7.00;1.85;;;16.10;61.80;;;;;;5102738;28;20208;-61
2023/10/30 07:50:07;;;;;;;5.25;1.70;;;16.10;61.90;;;;;;5114063;28;20713;-62
2023/10/30 07:52:35;;;;;;;7.18;2.17;;;16.10;61.80;;;;;;5114176;28;20192;-58
2023/10/30 07:55:05;;;;;;;4.65;1.60;;;16.10;61.80;;;;;;5108317;28;20225;-57
2023/10/30 07:57:32;;;;;;;7.72;2.00;;;16.10;61.90;;;;;;5109628;28;20194;-60
2023/10/30 07:59:59;;;;;;;5.07;1.98;;;16.10;61.90;;;;;;5113817;28;20243;-58
2023/10/30 08:02:26;;;;;;;5.80;1.70;;;16.10;61.80;;;;;;5113829;28;20300;-62
2023/10/30 08:04:53;;;;;;;5.85;1.42;;;16.10;61.90;;;;;;5113795;28;20214;-61
2023/10/30 08:07:20;;;;;;;7.65;2.55;;;16.20;62.00;;;;;;5113468;28;20197;-62
2023/10/30 08:09:48;;;;;;;4.28;1.52;;;16.10;61.90;;;;;;5112790;28;20259;-62
2023/10/30 08:12:16;;;;;;;4.28;1.83;;;16.20;61.90;;;;;;5112675;28;20219;-63
2023/10/30 08:14:43;;;;;;;3.17;1.60;;;16.20;61.90;;;;;;5112046;28;20228;-58
2023/10/30 08:17:10;;;;;;;5.10;1.80;;;16.20;61.90;;;;;;5112087;28;20196;-60
2023/10/30 08:19:37;;;;;;;4.93;1.60;;;16.20;61.90;;;;;;5113054;28;20219;-63
2023/10/30 08:22:10;;;;;;;8.40;1.95;;;16.30;62.10;;;;;;5111818;28;20236;-59
2023/10/30 08:24:37;;;;;;;4.32;1.98;;;16.30;62.00;;;;;;5112788;28;20274;-60
2023/10/30 08:27:06;;;;;;;6.50;1.73;;;16.30;61.90;;;;;;5110291;28;20186;-59
2023/10/30 08:29:39;;;;;;;11.60;1.67;;;16.30;62.60;;;;;;5111929;28;20292;-61
2023/10/30 08:32:10;;;;;;;5.95;1.88;;;16.30;61.70;;;;;;5113618;28;20189;-62
2023/10/30 08:34:46;;;;;;;6.07;1.92;;;16.30;61.80;;;;;;5111707;28;20768;-61
2023/10/30 08:37:13;;;;;;;6.63;1.90;;;16.40;61.80;;;;;;5112255;28;20199;-63
2023/10/30 08:39:50;;;;;;;5.95;1.95;;;16.40;61.80;;;;;;5113562;28;20217;-63
2023/10/30 08:42:19;;;;;;;9.60;1.75;;;16.40;62.00;;;;;;5104561;28;20356;-60
2023/10/30 08:44:47;;;;;;;5.63;1.75;;;16.40;62.10;;;;;;5092735;28;20222;-61
2023/10/30 08:47:41;;;;;;;6.13;1.85;;;16.40;62.10;;;;;;5092056;28;20190;-60
2023/10/30 08:50:09;;;;;;;5.72;2.10;;;16.40;62.20;;;;;;5091976;28;20324;-60
2023/10/30 08:52:44;;;;;;;6.95;2.00;;;16.40;62.20;;;;;;5092508;28;20190;-60
2023/10/30 08:55:12;;;;;;;7.50;1.90;;;16.40;62.20;;;;;;5092316;28;20214;-59
2023/10/30 08:58:13;;;;;;;5.63;1.65;;;16.40;62.20;;;;;;5092192;28;20194;-62
2023/10/30 09:00:46;;;;;;;7.80;2.05;;;16.40;62.20;;;;;;5091641;28;20304;-61
2023/10/30 09:03:14;;;;;;;8.93;2.13;;;16.40;62.20;;;;;;5111636;28;20260;-63
2023/10/30 09:06:19;;;;;;;4.38;1.85;;;16.50;62.30;;;;;;5112074;28;20717;-60
2023/10/30 09:08:56;;;;;;;5.30;1.92;;;16.50;62.30;;;;;;5092548;28;20205;-63
2023/10/30 09:14:28;;;;;;;7.07;1.90;;;16.50;62.30;;;;;;5109482;28;20211;-62
2023/10/30 09:16:55;;;;;;;5.13;1.98;;;16.50;62.30;;;;;;5108146;28;20196;-62
2023/10/30 09:19:22;;;;;;;8.32;2.05;;;16.50;62.30;;;;;;5111957;28;20308;-62
2023/10/30 09:22:21;;;;;;;6.13;1.92;;;16.50;62.20;;;;;;5112127;28;20713;-63
2023/10/30 09:24:48;;;;;;;3.75;1.83;;;16.50;62.30;;;;;;5112406;28;20220;-62
2023/10/30 09:27:17;;;;;;;8.73;1.90;;;16.60;62.30;;;;;;5112410;28;20279;-62
2023/10/30 09:29:46;;;;;;;4.75;1.67;;;16.50;62.30;;;;;;5111037;28;20227;-61
2023/10/30 09:37:43;;;;;;;8.38;2.20;;;16.50;62.30;;;;;;5099788;28;20222;-61
2023/10/30 09:40:12;;;;;;;5.72;1.85;;;16.50;62.30;;;;;;5090916;28;20222;-62
2023/10/30 09:42:52;;;;;;;6.60;2.60;;;16.60;62.40;;;;;;5091789;28;20299;-63
2023/10/30 09:45:23;;;;;;;8.73;2.20;;;16.50;62.30;;;;;;5091147;28;20217;-62
2023/10/30 09:48:06;;;;;;;4.10;1.70;;;16.60;62.40;;;;;;5091632;28;20276;-62
2023/10/30 09:50:34;;;;;;;3.65;1.83;;;16.60;62.40;;;;;;5088872;28;20228;-61
2023/10/30 09:53:04;;;;;;;7.88;2.10;;;16.60;62.40;;;;;;5095601;28;20189;-61
2023/10/30 09:55:32;;;;;;;6.55;2.10;;;16.60;62.40;;;;;;5111944;28;20217;-62
2023/10/30 09:57:59;;;;;;;11.23;2.33;;;16.60;62.40;;;;;;5110920;28;20197;-60
2023/10/30 10:00:28;;;;;;;10.07;2.03;;;16.60;62.40;;;;;;5105420;28;20237;-60
2023/10/30 10:02:55;;;;;;;4.93;2.10;;;16.60;62.40;;;;;;5109231;28;20781;-61
2023/10/30 10:05:22;;;;;;;7.88;2.10;;;16.60;62.40;;;;;;5076646;28;20308;-62
2023/10/30 10:07:51;;;;;;;10.15;2.00;;;16.60;62.40;;;;;;5112019;28;20702;-62
2023/10/30 10:10:51;;;;;;;3.08;1.67;;;16.60;62.40;;;;;;5110839;28;20248;-58
2023/10/30 10:13:18;;;;;;;3.65;1.70;;;16.60;62.40;;;;;;5087817;28;20205;-60
2023/10/30 10:15:48;;;;;;;5.60;2.00;;;16.70;62.50;;;;;;5096163;28;20221;-59
2023/10/30 10:18:24;;;;;;;7.20;2.30;;;16.70;62.50;;;;;;5096291;28;20187;-61
2023/10/30 10:20:56;;;;;;;8.15;1.77;;;16.70;62.50;;;;;;5094620;28;20217;-62
2023/10/30 10:23:24;;;;;;;6.35;1.77;;;16.70;62.50;;;;;;5095093;28;20209;-57
2023/10/30 10:25:56;;;;;;;4.60;1.98;;;16.70;62.50;;;;;;5104771;28;20244;-60
2023/10/30 10:28:23;;;;;;;7.50;1.90;;;16.70;62.50;;;;;;5105725;28;20193;-62
2023/10/30 10:30:53;;;;;;;6.47;1.67;;;16.70;62.50;;;;;;5101433;28;20226;-60
2023/10/30 10:33:22;;;;;;;4.60;2.08;;;16.70;62.50;;;;;;5104261;28;20229;-60
2023/10/30 10:35:54;;;;;;;4.53;2.03;;;16.70;62.50;;;;;;5106687;28;20227;-63
2023/10/30 10:38:22;;;;;;;4.28;1.67;;;16.80;62.60;;;;;;5099940;28;20230;-62
2023/10/30 10:40:54;;;;;;;8.48;2.08;;;16.70;62.50;;;;;;5106557;28;20664;-62
2023/10/30 10:43:23;;;;;;;3.92;1.42;;;16.80;62.60;;;;;;5100647;28;20236;-62
2023/10/30 10:46:04;;;;;;;7.43;2.40;;;16.80;62.60;;;;;;5098697;28;20711;-60
2023/10/30 10:48:32;;;;;;;6.60;2.05;;;16.80;62.60;;;;;;5042093;28;20202;-62
2023/10/30 10:51:03;;;;;;;6.90;1.90;;;16.80;63.20;;;;;;5095412;28;20651;-62
2023/10/30 10:53:32;;;;;;;7.45;2.40;;;16.80;63.90;;;;;;5095388;28;20193;-60
2023/10/30 10:56:07;;;;;;;9.82;1.80;;;16.80;64.00;;;;;;5098917;28;20214;-62
2023/10/30 10:58:43;;;;;;;8.13;1.98;;;16.80;64.50;;;;;;5105563;28;20190;-61
2023/10/30 11:01:30;;;;;;;11.13;2.17;;;16.90;64.70;;;;;;5092918;28;20228;-62
2023/10/30 11:06:42;;;;;;;6.15;1.75;;;16.90;64.90;;;;;;5039878;28;20245;-60
2023/10/30 11:09:18;;;;;;;20.13;3.05;;;16.90;64.90;;;;;;5044508;28;20204;-62
2023/10/30 11:11:52;;;;;;;7.28;2.10;;;16.90;64.70;;;;;;5041635;28;20651;-62
2023/10/30 11:17:16;;;;;;;7.82;1.88;;;16.90;64.90;;;;;;5038811;28;20285;-61
2023/10/30 11:19:45;;;;;;;3.92;1.80;;;16.90;65.00;;;;;;5041065;28;20223;-62
2023/10/30 11:22:12;;;;;;;4.43;1.80;;;16.90;65.00;;;;;;5032527;28;20247;-60
2023/10/30 11:24:40;;;;;;;6.03;1.90;;;16.90;64.80;;;;;;5044803;28;20200;-64
2023/10/30 11:27:39;;;;;;;9.73;1.80;;;16.90;64.80;;;;;;5046810;28;20192;-63
2023/10/30 11:30:11;;;;;;;4.80;1.75;;;16.90;64.90;;;;;;5038573;28;20671;-60
2023/10/30 11:32:58;;;;;;;4.97;1.85;;;16.90;64.60;;;;;;5036773;28;20271;-62
2023/10/30 11:35:26;;;;;;;4.13;1.98;;;16.90;64.60;;;;;;5046250;28;20238;-61
2023/10/30 11:37:53;;;;;;;4.93;1.70;;;17.00;64.60;;;;;;5050199;28;20220;-59
2023/10/30 11:40:21;;;;;;;5.38;1.63;;;17.00;64.60;;;;;;5040759;28;20220;-61
2023/10/30 11:42:49;;;;;;;5.40;1.75;;;17.00;64.50;;;;;;5031057;28;20212;-62
2023/10/30 11:45:20;;;;;;;4.22;1.88;;;17.00;64.40;;;;;;5062523;28;20218;-59
2023/10/30 11:51:30;;;;;;;4.32;1.88;;;17.00;64.30;;;;;;5028892;28;20223;-60
2023/10/30 11:54:00;;;;;;;5.28;1.67;;;17.00;64.30;;;;;;5029097;28;20211;-61
2023/10/30 11:56:28;;;;;;;4.43;1.80;;;17.00;64.20;;;;;;5056186;28;20223;-62
2023/10/30 11:58:56;;;;;;;9.50;1.90;;;17.00;64.20;;;;;;5067623;28;20191;-57
2023/10/30 12:01:23;;;;;;;6.72;1.85;;;17.00;64.10;;;;;;5052799;28;20238;-61
2023/10/30 12:03:54;;;;;;;4.95;2.13;;;17.00;64.10;;;;;;5053300;28;20306;-59
2023/10/30 12:06:25;;;;;;;4.88;1.90;;;17.00;64.00;;;;;;5053267;28;20226;-62
2023/10/30 12:08:52;;;;;;;7.45;2.38;;;17.00;64.00;;;;;;5053468;28;20213;-58
2023/10/30 12:11:21;;;;;;;4.63;1.90;;;17.10;64.00;;;;;;5052899;28;20319;-60
2023/10/30 12:13:49;;;;;;;6.90;2.20;;;17.10;64.00;;;;;;5052405;28;20658;-63
2023/10/30 12:16:17;;;;;;;5.38;2.38;;;17.10;64.00;;;;;;5057978;28;20207;-59
2023/10/30 12:18:44;;;;;;;2.97;1.80;;;17.10;63.90;;;;;;5071316;28;20566;-62
2023/10/30 12:21:11;;;;;;;4.63;2.22;;;17.10;63.80;;;;;;5061730;28;20736;-56
2023/10/30 12:23:47;;;;;;;7.18;2.22;;;17.10;63.80;;;;;;5057713;28;20219;-58
2023/10/30 12:26:14;;;;;;;6.25;2.30;;;17.10;63.80;;;;;;5054477;28;20302;-61
2023/10/30 12:28:44;;;;;;;4.15;2.20;;;17.10;63.70;;;;;;5066290;28;20301;-60
2023/10/30 12:31:22;;;;;;;3.15;1.95;;;17.10;63.60;;;;;;5063561;28;20230;-57
2023/10/30 12:34:07;;;;;;;6.78;1.98;;;17.10;63.60;;;;;;5071733;28;20283;-64
2023/10/30 12:36:35;;;;;;;3.78;1.92;;;17.10;63.60;;;;;;5054721;28;20231;-58
2023/10/30 12:39:15;;;;;;;4.40;2.42;;;17.10;63.50;;;;;;5088434;28;20226;-60
2023/10/30 12:41:42;;;;;;;5.43;2.15;;;17.10;63.50;;;;;;5091943;28;20564;-61
2023/10/30 12:44:11;;;;;;;4.45;2.17;;;17.10;63.50;;;;;;5106709;28;20235;-59
2023/10/30 12:46:38;;;;;;;3.60;2.00;;;17.10;63.50;;;;;;5102886;28;20225;-61
2023/10/30 12:49:08;;;;;;;3.90;2.03;;;17.10;63.50;;;;;;5097899;28;20255;-61
2023/10/30 12:51:37;;;;;;;7.43;1.80;;;17.10;63.50;;;;;;5089944;28;20222;-63
2023/10/30 12:54:04;;;;;;;5.05;1.73;;;17.10;63.50;;;;;;5090298;28;20190;-59
2023/10/30 12:56:32;;;;;;;7.45;1.80;;;17.10;63.50;;;;;;5094950;28;20240;-58
2023/10/30 12:58:59;;;;;;;7.25;2.10;;;17.10;63.50;;;;;;5109519;28;20260;-60
2023/10/30 13:01:33;;;;;;;7.30;1.80;;;17.10;63.40;;;;;;5101920;28;20217;-60
2023/10/30 13:04:10;;;;;;;;;;;;;;;;;;;;;
2023/10/30 13:06:37;;;;;;;6.38;1.92;;;17.10;63.70;;;;;;5092677;28;20230;-64
2023/10/30 13:09:05;;;;;;;7.38;1.50;;;17.10;63.70;;;;;;5102227;28;20576;-64
2023/10/30 13:11:33;;;;;;;3.80;1.83;;;17.10;63.60;;;;;;5076973;28;20221;-64
2023/10/30 13:14:01;;;;;;;8.70;1.98;;;17.10;63.80;;;;;;5051477;28;20393;-59